Time;durP1;ratioP1;P1;durP2;ratioP2;P2;SDS_P1;SDS_P2;PMS_P1;PMS_P2;Temp;Humidity;BMP_temperature;BMP_pressure;BME280_temperature;BME280_humidity;BME280_pressure;Samples;Min_cycle;Max_cycle;Signal;HPM_P1;HPM_P2
2022/10/30 00:01:06;;;;;;;;;;;;;;;11.31;89.03;100836.34;85776;1296;80633;-59
2022/10/30 00:03:20;;;;;;;;;;;;;;;11.33;89.02;100839.30;85831;1299;82206;-59
2022/10/30 00:05:27;;;;;;;;;;;;;;;11.35;89.16;100835.46;85826;1299;99009;-58
2022/10/30 00:07:35;;;;;;;;;;;;;;;11.34;89.16;100835.27;85828;1294;88898;-60
2022/10/30 00:09:43;;;;;;;;;;;;;;;11.32;89.25;100833.42;85838;1300;95418;-59
2022/10/30 00:11:50;;;;;;;;;;;;;;;11.35;89.29;100830.97;85832;1293;82099;-59
2022/10/30 00:13:58;;;;;;;;;;;;;;;11.34;89.33;100822.46;85869;1293;82495;-59
2022/10/30 00:16:07;;;;;;;;;;;;;;;11.35;89.41;100828.47;85848;1287;100413;-60
2022/10/30 00:18:16;;;;;;;;;;;;;;;11.36;89.36;100825.92;85857;1297;88761;-59
2022/10/30 00:20:23;;;;;;;;;;;;;;;11.37;89.36;100825.42;85785;1302;95484;-59
2022/10/30 00:22:30;;;;;;;;;;;;;;;11.40;89.43;100819.70;85869;1293;81097;-59
2022/10/30 00:24:37;;;;;;;;;;;;;;;11.42;89.53;100819.77;85797;1294;82952;-59
2022/10/30 00:26:44;;;;;;;;;;;;;;;11.46;89.54;100820.05;85853;1299;99746;-59
2022/10/30 00:28:55;;;;;;;;;;;;;;;11.49;89.56;100822.40;85830;1293;88500;-60
2022/10/30 00:31:03;;;;;;;;;;;;;;;11.49;89.59;100818.17;85846;1301;93038;-60
2022/10/30 00:33:11;;;;;;;;;;;;;;;11.49;89.60;100819.59;85847;1293;81989;-60
2022/10/30 00:35:22;;;;;;;;;;;;;;;11.50;89.62;100818.30;85899;1295;82506;-59
2022/10/30 00:37:29;;;;;;;;;;;;;;;11.49;89.63;100821.28;85737;1296;101629;-59
2022/10/30 00:39:35;;;;;;;;;;;;;;;11.48;89.69;100820.31;85877;1294;88157;-59
2022/10/30 00:41:43;;;;;;;;;;;;;;;11.50;89.65;100825.39;85826;1293;93975;-64
2022/10/30 00:43:52;;;;;;;;;;;;;;;11.50;89.66;100821.34;85813;1301;82416;-59
2022/10/30 00:46:03;;;;;;;;;;;;;;;11.49;89.66;100815.91;85840;1301;82920;-59
2022/10/30 00:48:11;;;;;;;;;;;;;;;11.47;89.68;100804.52;85840;1294;97456;-60
2022/10/30 00:50:21;;;;;;;;;;;;;;;11.47;89.73;100798.78;85886;1293;88122;-59
2022/10/30 00:52:30;;;;;;;;;;;;;;;11.49;89.74;100794.40;85835;1295;92676;-58
2022/10/30 00:54:38;;;;;;;;;;;;;;;11.51;89.81;100796.48;85793;1296;81786;-58
2022/10/30 00:56:46;;;;;;;;;;;;;;;11.53;89.83;100796.13;85785;1294;80893;-58
2022/10/30 00:59:00;;;;;;;;;;;;;;;11.55;89.85;100791.84;85808;1300;98472;-58
2022/10/30 01:01:14;;;;;;;;;;;;;;;11.56;89.88;100801.71;85842;1294;87393;-58
2022/10/30 01:03:22;;;;;;;;;;;;;;;11.59;89.87;100810.38;85847;1301;92527;-59
2022/10/30 01:05:32;;;;;;;;;;;;;;;11.63;89.93;100813.27;85841;1301;82488;-59
2022/10/30 01:07:41;;;;;;;;;;;;;;;11.66;90.02;100812.92;85817;1293;82535;-58
2022/10/30 01:09:49;;;;;;;;;;;;;;;11.67;90.03;100810.98;85879;1301;98647;-59
2022/10/30 01:11:57;;;;;;;;;;;;;;;11.69;90.00;100811.09;85874;1293;88675;-59
2022/10/30 01:14:06;;;;;;;;;;;;;;;11.71;89.99;100810.54;85851;1293;95839;-59
2022/10/30 01:16:27;;;;;;;;;;;;;;;11.73;90.02;100813.48;85903;1294;80924;-59
2022/10/30 01:18:41;;;;;;;;;;;;;;;11.74;90.02;100812.66;85858;1293;82306;-59
2022/10/30 01:21:15;;;;;;;;;;;;;;;11.74;90.09;100818.48;85890;1293;98428;-59
2022/10/30 01:23:33;;;;;;;;;;;;;;;11.77;90.00;100818.16;85833;1294;88362;-59
2022/10/30 01:25:49;;;;;;;;;;;;;;;11.78;90.06;100820.70;85838;1293;93137;-59
2022/10/30 01:28:04;;;;;;;;;;;;;;;11.78;89.92;100819.50;85798;1297;82459;-58
2022/10/30 01:30:26;;;;;;;;;;;;;;;11.78;89.87;100819.88;85866;1293;81610;-59
2022/10/30 01:32:49;;;;;;;;;;;;;;;11.81;90.05;100819.42;85817;1293;98727;-59
2022/10/30 01:35:05;;;;;;;;;;;;;;;11.79;89.90;100812.60;85886;1293;88263;-59
2022/10/30 01:37:18;;;;;;;;;;;;;;;11.79;89.97;100817.44;85834;1293;95817;-59
2022/10/30 01:39:27;;;;;;;;;;;;;;;11.81;90.00;100814.34;85850;1301;81709;-60
2022/10/30 01:41:35;;;;;;;;;;;;;;;11.81;89.98;100817.21;85848;1301;83003;-60
2022/10/30 01:43:46;;;;;;;;;;;;;;;11.80;90.05;100820.04;85841;1293;99810;-59
2022/10/30 01:46:07;;;;;;;;;;;;;;;11.79;89.89;100821.52;85854;1293;88753;-59
2022/10/30 01:48:30;;;;;;;;;;;;;;;11.81;89.95;100820.79;85838;1295;94849;-60
2022/10/30 01:50:45;;;;;;;;;;;;;;;11.88;90.07;100811.30;85882;1293;80932;-59
2022/10/30 01:52:58;;;;;;;;;;;;;;;11.94;90.23;100811.47;85854;1293;82335;-59
2022/10/30 01:55:11;;;;;;;;;;;;;;;11.93;90.18;100810.67;85863;1297;99304;-58
2022/10/30 01:57:25;;;;;;;;;;;;;;;11.92;90.09;100811.16;85861;1293;86057;-59
2022/10/30 01:59:37;;;;;;;;;;;;;;;11.91;90.18;100807.31;85893;1300;94518;-59
2022/10/30 02:01:44;;;;;;;;;;;;;;;11.95;90.28;100810.40;85798;1304;81786;-59
2022/10/30 02:03:52;;;;;;;;;;;;;;;11.96;90.30;100808.13;85954;1294;80757;-59
2022/10/30 02:05:59;;;;;;;;;;;;;;;11.96;90.26;100810.34;85842;1293;100236;-59
2022/10/30 02:08:07;;;;;;;;;;;;;;;11.95;90.25;100809.83;85898;1301;89534;-59
2022/10/30 02:10:14;;;;;;;;;;;;;;;11.97;90.20;100810.84;85880;1293;95804;-59
2022/10/30 02:12:23;;;;;;;;;;;;;;;11.96;90.31;100811.95;85861;1293;81759;-59
2022/10/30 02:14:32;;;;;;;;;;;;;;;11.97;90.23;100817.06;85920;1293;82778;-59
2022/10/30 02:16:46;;;;;;;;;;;;;;;11.97;90.25;100814.82;85734;1296;101668;-59
2022/10/30 02:18:54;;;;;;;;;;;;;;;11.98;90.17;100808.73;85853;1300;86462;-59
2022/10/30 02:21:01;;;;;;;;;;;;;;;12.05;90.35;100804.88;85843;1293;95481;-58
2022/10/30 02:23:12;;;;;;;;;;;;;;;12.07;90.45;100807.48;85833;1293;82948;-58
2022/10/30 02:25:22;;;;;;;;;;;;;;;12.09;90.48;100808.13;85865;1300;83632;-59
2022/10/30 02:27:30;;;;;;;;;;;;;;;12.10;90.40;100811.84;85818;1293;98868;-57
2022/10/30 02:29:37;;;;;;;;;;;;;;;12.10;90.47;100817.90;85879;1297;87923;-59
2022/10/30 02:31:44;;;;;;;;;;;;;;;12.11;90.51;100823.95;85856;1297;96205;-60
2022/10/30 02:33:53;;;;;;;;;;;;;;;12.10;90.37;100820.23;85847;1301;81486;-60
2022/10/30 02:36:01;;;;;;;;;;;;;;;12.08;90.40;100821.05;85857;1299;81502;-59
2022/10/30 02:38:08;;;;;;;;;;;;;;;12.10;90.29;100825.89;85835;1295;98670;-59
2022/10/30 02:40:16;;;;;;;;;;;;;;;12.10;90.36;100828.36;85863;1293;88418;-59
2022/10/30 02:42:23;;;;;;;;;;;;;;;12.10;90.31;100830.98;85890;1293;96088;-59
2022/10/30 02:44:32;;;;;;;;;;;;;;;12.09;90.29;100829.55;85889;1293;82479;-59
2022/10/30 02:46:39;;;;;;;;;;;;;;;12.10;90.23;100827.85;85895;1286;82671;-59
2022/10/30 02:48:46;;;;;;;;;;;;;;;12.07;90.20;100824.91;85885;1293;100270;-59
2022/10/30 02:50:53;;;;;;;;;;;;;;;12.08;90.22;100829.76;85877;1301;88286;-59
2022/10/30 02:53:01;;;;;;;;;;;;;;;12.08;90.20;100827.79;85859;1294;94575;-59
2022/10/30 02:55:09;;;;;;;;;;;;;;;12.05;90.03;100825.38;85871;1297;82492;-59
2022/10/30 02:57:17;;;;;;;;;;;;;;;12.03;90.10;100828.92;85872;1301;82937;-58
2022/10/30 02:59:27;;;;;;;;;;;;;;;12.02;90.12;100826.20;85885;1295;99093;-60
2022/10/30 03:01:34;;;;;;;;;;;;;;;12.03;90.09;100827.72;85737;1297;90660;-59
2022/10/30 03:03:42;;;;;;;;;;;;;;;12.03;90.23;100828.71;85832;1293;95360;-60
2022/10/30 03:05:49;;;;;;;;;;;;;;;12.03;90.14;100832.55;85839;1301;79773;-58
2022/10/30 03:07:57;;;;;;;;;;;;;;;11.99;90.10;100831.33;85832;1299;81712;-58
2022/10/30 03:10:07;;;;;;;;;;;;;;;11.97;90.03;100838.10;85826;1293;99552;-60
2022/10/30 03:12:17;;;;;;;;;;;;;;;11.98;90.08;100837.89;85837;1293;88951;-59
2022/10/30 03:14:24;;;;;;;;;;;;;;;11.96;90.17;100841.23;85722;1296;93817;-60
2022/10/30 03:16:33;;;;;;;;;;;;;;;11.94;90.20;100845.71;85828;1299;80630;-59
2022/10/30 03:18:41;;;;;;;;;;;;;;;11.91;90.26;100847.52;85837;1300;80947;-58
2022/10/30 03:20:48;;;;;;;;;;;;;;;11.92;90.22;100852.67;85834;1301;97037;-59
2022/10/30 03:22:55;;;;;;;;;;;;;;;11.90;90.22;100848.98;85873;1297;87348;-59
2022/10/30 03:25:02;;;;;;;;;;;;;;;11.89;90.15;100849.93;85860;1301;94496;-59
2022/10/30 03:27:09;;;;;;;;;;;;;;;11.85;90.13;100852.41;85834;1301;79440;-59
2022/10/30 03:29:17;;;;;;;;;;;;;;;11.83;90.13;100855.42;85923;1293;81246;-59
2022/10/30 03:31:24;;;;;;;;;;;;;;;11.81;90.18;100857.20;85908;1300;98751;-59
2022/10/30 03:33:32;;;;;;;;;;;;;;;11.80;90.20;100855.70;85869;1301;87094;-59
2022/10/30 03:35:39;;;;;;;;;;;;;;;11.78;90.19;100853.11;85891;1293;96183;-59
2022/10/30 03:37:45;;;;;;;;;;;;;;;11.75;90.24;100852.36;85861;1293;80774;-58
2022/10/30 03:39:53;;;;;;;;;;;;;;;11.72;90.41;100852.20;85853;1286;79639;-59
2022/10/30 03:42:00;;;;;;;;;;;;;;;11.70;90.38;100852.30;85885;1293;100475;-59
2022/10/30 03:44:08;;;;;;;;;;;;;;;11.69;90.32;100851.48;85876;1301;89300;-59
2022/10/30 03:46:18;;;;;;;;;;;;;;;11.69;90.41;100853.68;85841;1301;93668;-59
2022/10/30 03:48:26;;;;;;;;;;;;;;;11.69;90.32;100849.69;85822;1295;80294;-59
2022/10/30 03:50:34;;;;;;;;;;;;;;;11.68;90.42;100846.87;85863;1293;82288;-59
2022/10/30 03:52:41;;;;;;;;;;;;;;;11.70;90.47;100847.13;85828;1297;98598;-59
2022/10/30 03:54:49;;;;;;;;;;;;;;;11.68;90.43;100851.81;85836;1301;88163;-59
2022/10/30 03:56:56;;;;;;;;;;;;;;;11.68;90.62;100855.22;85812;1301;95711;-59
2022/10/30 03:59:06;;;;;;;;;;;;;;;11.70;90.46;100851.21;85849;1299;82039;-59
2022/10/30 04:01:14;;;;;;;;;;;;;;;11.70;90.48;100851.95;85831;1294;82150;-58
2022/10/30 04:03:22;;;;;;;;;;;;;;;11.69;90.53;100854.18;85832;1293;99758;-60
2022/10/30 04:05:31;;;;;;;;;;;;;;;11.66;90.66;100855.06;85867;1294;85211;-57
2022/10/30 04:07:38;;;;;;;;;;;;;;;11.66;90.71;100853.48;85835;1301;94812;-58
2022/10/30 04:09:47;;;;;;;;;;;;;;;11.66;90.72;100855.04;85859;1301;80700;-59
2022/10/30 04:11:56;;;;;;;;;;;;;;;11.67;90.74;100855.33;85896;1294;81649;-59
2022/10/30 04:14:03;;;;;;;;;;;;;;;11.67;90.72;100854.59;85863;1299;99931;-59
2022/10/30 04:16:10;;;;;;;;;;;;;;;11.69;90.82;100850.77;85824;1303;89037;-60
2022/10/30 04:18:18;;;;;;;;;;;;;;;11.72;90.84;100849.49;85782;1300;92785;-59
2022/10/30 04:20:27;;;;;;;;;;;;;;;11.74;90.86;100849.55;85951;1301;80076;-60
2022/10/30 04:22:36;;;;;;;;;;;;;;;11.76;90.82;100847.95;85919;1294;81984;-60
2022/10/30 04:24:43;;;;;;;;;;;;;;;11.81;90.91;100842.95;85936;1293;98677;-59
2022/10/30 04:26:53;;;;;;;;;;;;;;;11.86;91.05;100841.85;85900;1299;88988;-59
2022/10/30 04:29:01;;;;;;;;;;;;;;;11.95;91.17;100834.94;85893;1293;93853;-59
2022/10/30 04:31:08;;;;;;;;;;;;;;;12.01;91.22;100832.40;85869;1301;81692;-59
2022/10/30 04:33:17;;;;;;;;;;;;;;;12.05;91.24;100834.11;85883;1300;82875;-60
2022/10/30 04:35:28;;;;;;;;;;;;;;;12.11;91.31;100833.84;85893;1301;99406;-58
2022/10/30 04:37:36;;;;;;;;;;;;;;;12.14;91.35;100829.91;85846;1299;88902;-58
2022/10/30 04:39:45;;;;;;;;;;;;;;;12.16;91.40;100827.64;85731;1298;97393;-58
2022/10/30 04:41:53;;;;;;;;;;;;;;;12.17;91.42;100826.40;85838;1294;81656;-58
2022/10/30 04:44:01;;;;;;;;;;;;;;;12.18;91.42;100822.54;85859;1293;82400;-59
2022/10/30 04:46:08;;;;;;;;;;;;;;;12.16;91.54;100819.39;85842;1301;98430;-59
2022/10/30 04:48:18;;;;;;;;;;;;;;;12.14;91.53;100812.70;85853;1301;85583;-59
2022/10/30 04:50:26;;;;;;;;;;;;;;;12.14;91.53;100814.19;85851;1286;95295;-59
2022/10/30 04:52:34;;;;;;;;;;;;;;;12.15;91.57;100812.34;85831;1286;80714;-59
2022/10/30 04:54:43;;;;;;;;;;;;;;;12.16;91.54;100812.60;85847;1287;81101;-59
2022/10/30 04:56:51;;;;;;;;;;;;;;;12.16;91.55;100814.52;85873;1293;99440;-59
2022/10/30 04:58:58;;;;;;;;;;;;;;;12.16;91.64;100812.81;85870;1293;87883;-59
2022/10/30 05:01:07;;;;;;;;;;;;;;;12.18;91.57;100819.92;85851;1293;94881;-60
2022/10/30 05:03:19;;;;;;;;;;;;;;;12.18;91.58;100822.91;85897;1300;80490;-59
2022/10/30 05:05:27;;;;;;;;;;;;;;;12.14;91.51;100828.52;85907;1301;82235;-60
2022/10/30 05:07:34;;;;;;;;;;;;;;;12.14;91.46;100829.49;85891;1300;97024;-60
2022/10/30 05:09:43;;;;;;;;;;;;;;;12.17;91.42;100834.23;85925;1293;88319;-59
2022/10/30 05:11:53;;;;;;;;;;;;;;;12.16;91.53;100835.06;85894;1293;94672;-59
2022/10/30 05:14:01;;;;;;;;;;;;;;;12.15;91.52;100839.66;85859;1293;81377;-59
2022/10/30 05:16:09;;;;;;;;;;;;;;;12.13;91.49;100840.14;85879;1293;83163;-59
2022/10/30 05:18:16;;;;;;;;;;;;;;;12.12;91.40;100848.58;85888;1301;98205;-60
2022/10/30 05:20:23;;;;;;;;;;;;;;;12.10;91.39;100851.27;85839;1293;88916;-59
2022/10/30 05:22:30;;;;;;;;;;;;;;;12.12;91.35;100852.95;85872;1301;95006;-59
2022/10/30 05:24:38;;;;;;;;;;;;;;;12.12;91.31;100854.88;85849;1294;82216;-58
2022/10/30 05:26:45;;;;;;;;;;;;;;;12.15;91.39;100850.66;85774;1299;82508;-58
2022/10/30 05:28:58;;;;;;;;;;;;;;;12.19;91.44;100853.80;85819;1295;98619;-58
2022/10/30 05:31:08;;;;;;;;;;;;;;;12.17;91.36;100858.86;85856;1293;87636;-58
2022/10/30 05:33:16;;;;;;;;;;;;;;;12.14;91.41;100865.11;85797;1301;94750;-59
2022/10/30 05:35:26;;;;;;;;;;;;;;;12.10;91.29;100873.13;85714;1304;83637;-59
2022/10/30 05:37:34;;;;;;;;;;;;;;;12.08;91.36;100875.23;85862;1293;81951;-60
2022/10/30 05:39:41;;;;;;;;;;;;;;;12.10;91.28;100880.63;85853;1294;99486;-59
2022/10/30 05:41:49;;;;;;;;;;;;;;;12.06;91.43;100879.05;85849;1301;88183;-59
2022/10/30 05:43:56;;;;;;;;;;;;;;;12.05;91.44;100874.67;85812;1293;94581;-59
2022/10/30 05:46:05;;;;;;;;;;;;;;;12.07;91.44;100871.23;85883;1301;81815;-59
2022/10/30 05:48:12;;;;;;;;;;;;;;;12.08;91.45;100873.00;85862;1293;79172;-59
2022/10/30 05:50:22;;;;;;;;;;;;;;;12.09;91.42;100874.25;85876;1294;99813;-60
2022/10/30 05:52:29;;;;;;;;;;;;;;;12.08;91.46;100874.70;85882;1293;88632;-59
2022/10/30 05:54:39;;;;;;;;;;;;;;;12.13;91.49;100867.80;85898;1300;95493;-58
2022/10/30 05:56:47;;;;;;;;;;;;;;;12.19;91.62;100867.02;85851;1294;78949;-59
2022/10/30 05:58:55;;;;;;;;;;;;;;;12.24;91.68;100869.63;85892;1301;82761;-57
2022/10/30 06:01:04;;;;;;;;;;;;;;;12.28;91.59;100864.84;85861;1301;99504;-59
2022/10/30 06:03:12;;;;;;;;;;;;;;;12.32;91.61;100858.52;85898;1299;89614;-59
2022/10/30 06:05:19;;;;;;;;;;;;;;;12.32;91.72;100850.89;85867;1299;95930;-59
2022/10/30 06:07:27;;;;;;;;;;;;;;;12.34;91.71;100853.41;85861;1300;82079;-59
2022/10/30 06:09:34;;;;;;;;;;;;;;;12.36;91.80;100857.20;85881;1300;81549;-59
2022/10/30 06:11:41;;;;;;;;;;;;;;;12.40;91.80;100851.19;85865;1293;99920;-60
2022/10/30 06:16:12;;;;;;;;;;;;;;;12.43;91.74;100835.44;85842;1293;93337;-64
2022/10/30 06:18:20;;;;;;;;;;;;;;;12.47;91.81;100832.64;85816;1301;83763;-59
2022/10/30 06:20:31;;;;;;;;;;;;;;;12.48;91.88;100837.08;85847;1301;83259;-59
2022/10/30 06:22:38;;;;;;;;;;;;;;;12.51;91.78;100838.78;85845;1294;100284;-59
2022/10/30 06:24:46;;;;;;;;;;;;;;;12.54;91.78;100839.48;85845;1301;87813;-58
2022/10/30 06:26:58;;;;;;;;;;;;;;;12.57;91.76;100843.98;85845;1301;95295;-59
2022/10/30 06:29:06;;;;;;;;;;;;;;;12.60;91.64;100846.34;85889;1293;82375;-57
2022/10/30 06:31:15;;;;;;;;;;;;;;;12.63;91.75;100845.55;85846;1300;83320;-59
2022/10/30 06:33:22;;;;;;;;;;;;;;;12.66;91.70;100843.24;85865;1301;99309;-59
2022/10/30 06:35:32;;;;;;;;;;;;;;;12.67;91.61;100842.79;85879;1293;89679;-59
2022/10/30 06:37:44;;;;;;;;;;;;;;;12.72;91.61;100844.27;85610;1301;93384;-59
2022/10/30 06:39:54;;;;;;;;;;;;;;;12.75;91.68;100850.08;85865;1285;82271;-58
2022/10/30 06:42:02;;;;;;;;;;;;;;;12.78;91.66;100852.52;85872;1293;82176;-58
2022/10/30 06:44:09;;;;;;;;;;;;;;;12.83;91.64;100853.64;85737;1301;100265;-58
2022/10/30 06:46:17;;;;;;;;;;;;;;;12.91;91.55;100858.48;85887;1301;87511;-59
2022/10/30 06:48:25;;;;;;;;;;;;;;;12.90;91.61;100865.61;85885;1301;94637;-60
2022/10/30 06:50:33;;;;;;;;;;;;;;;12.95;91.67;100868.45;85912;1301;79816;-59
2022/10/30 06:52:44;;;;;;;;;;;;;;;12.99;91.61;100867.95;85907;1301;82526;-61
2022/10/30 06:54:52;;;;;;;;;;;;;;;13.00;91.57;100867.97;85896;1301;97945;-58
2022/10/30 06:57:00;;;;;;;;;;;;;;;13.04;91.49;100872.33;85855;1301;89188;-59
2022/10/30 06:59:08;;;;;;;;;;;;;;;13.07;91.52;100880.11;85860;1293;94584;-57
2022/10/30 07:01:16;;;;;;;;;;;;;;;13.09;91.43;100878.84;85885;1299;82046;-58
2022/10/30 07:03:26;;;;;;;;;;;;;;;13.13;91.36;100876.70;85841;1293;82032;-59
2022/10/30 07:05:36;;;;;;;;;;;;;;;13.13;91.42;100879.31;85855;1299;100068;-59
2022/10/30 07:07:47;;;;;;;;;;;;;;;13.24;91.38;100879.65;85840;1301;88617;-59
2022/10/30 07:09:55;;;;;;;;;;;;;;;13.27;91.38;100885.11;85840;1301;95065;-59
2022/10/30 07:12:02;;;;;;;;;;;;;;;13.35;91.34;100879.66;85813;1301;82031;-59
2022/10/30 07:14:10;;;;;;;;;;;;;;;13.43;91.35;100872.81;85852;1293;80210;-58
2022/10/30 07:16:18;;;;;;;;;;;;;;;13.54;91.27;100870.23;85822;1300;99521;-58
2022/10/30 07:18:26;;;;;;;;;;;;;;;13.65;91.24;100875.83;85830;1299;87939;-58
2022/10/30 07:20:36;;;;;;;;;;;;;;;13.70;91.19;100885.41;85858;1300;95708;-58
2022/10/30 07:22:43;;;;;;;;;;;;;;;13.70;91.13;100878.65;85828;1293;80720;-58
2022/10/30 07:24:52;;;;;;;;;;;;;;;13.73;90.98;100874.00;85811;1299;82257;-59
2022/10/30 07:27:02;;;;;;;;;;;;;;;13.73;90.88;100874.45;85879;1300;96928;-59
2022/10/30 07:29:09;;;;;;;;;;;;;;;13.71;90.86;100878.73;85871;1301;88536;-59
2022/10/30 07:31:17;;;;;;;;;;;;;;;13.71;90.87;100877.83;85863;1299;94471;-59
2022/10/30 07:33:24;;;;;;;;;;;;;;;13.74;90.80;100878.52;85848;1299;79790;-59
2022/10/30 07:35:31;;;;;;;;;;;;;;;13.81;90.88;100872.38;85854;1286;81016;-58
2022/10/30 07:37:39;;;;;;;;;;;;;;;13.87;90.86;100868.26;85836;1287;99092;-58
2022/10/30 07:39:46;;;;;;;;;;;;;;;13.96;90.91;100858.65;85830;1299;87299;-58
2022/10/30 07:41:54;;;;;;;;;;;;;;;14.06;90.82;100862.35;85818;1296;95959;-58
2022/10/30 07:44:01;;;;;;;;;;;;;;;14.16;90.80;100859.56;85815;1300;82183;-58
2022/10/30 07:46:08;;;;;;;;;;;;;;;14.22;90.72;100859.75;85822;1297;82094;-58
2022/10/30 07:48:17;;;;;;;;;;;;;;;14.29;90.50;100863.88;85768;1298;98070;-59
2022/10/30 07:50:24;;;;;;;;;;;;;;;14.31;90.57;100859.71;85817;1299;88550;-60
2022/10/30 07:52:34;;;;;;;;;;;;;;;14.35;90.45;100865.46;85789;1296;94355;-60
2022/10/30 07:54:41;;;;;;;;;;;;;;;14.36;90.39;100870.39;85846;1300;82338;-60
2022/10/30 07:56:48;;;;;;;;;;;;;;;14.36;90.38;100874.02;85794;1299;80527;-59
2022/10/30 07:58:57;;;;;;;;;;;;;;;14.38;90.30;100878.98;85838;1296;97526;-60
2022/10/30 08:01:07;;;;;;;;;;;;;;;14.42;90.20;100875.14;85819;1302;88470;-60
2022/10/30 08:03:15;;;;;;;;;;;;;;;14.48;90.17;100882.52;85811;1293;95078;-60
2022/10/30 08:05:23;;;;;;;;;;;;;;;14.54;90.14;100883.30;85780;1301;82532;-59
2022/10/30 08:07:33;;;;;;;;;;;;;;;14.54;90.07;100888.70;85821;1295;81753;-59
2022/10/30 08:09:40;;;;;;;;;;;;;;;14.60;89.99;100882.48;85820;1300;99017;-60
2022/10/30 08:11:47;;;;;;;;;;;;;;;14.64;89.92;100876.23;85849;1302;87956;-59
2022/10/30 08:13:55;;;;;;;;;;;;;;;14.67;89.82;100872.81;85824;1304;95437;-59
2022/10/30 08:16:03;;;;;;;;;;;;;;;14.73;89.78;100868.93;85863;1299;82268;-59
2022/10/30 08:18:10;;;;;;;;;;;;;;;14.81;89.87;100873.02;85838;1300;81839;-60
2022/10/30 08:20:19;;;;;;;;;;;;;;;14.90;89.87;100872.03;85840;1294;97863;-60
2022/10/30 08:22:26;;;;;;;;;;;;;;;14.90;89.53;100869.77;85873;1302;88824;-61
2022/10/30 08:24:36;;;;;;;;;;;;;;;14.91;89.60;100868.73;85871;1291;93859;-59
2022/10/30 08:26:44;;;;;;;;;;;;;;;15.00;89.64;100872.05;85874;1300;79125;-60
2022/10/30 08:28:53;;;;;;;;;;;;;;;15.08;89.48;100875.33;85815;1300;82641;-61
2022/10/30 08:31:01;;;;;;;;;;;;;;;15.13;89.43;100881.16;85835;1299;98317;-59
2022/10/30 08:33:12;;;;;;;;;;;;;;;15.16;89.27;100877.31;85825;1296;86613;-58
2022/10/30 08:35:25;;;;;;;;;;;;;;;15.18;89.13;100879.88;85852;1299;95444;-59
2022/10/30 08:37:32;;;;;;;;;;;;;;;15.19;88.92;100877.19;85813;1297;80143;-60
2022/10/30 08:39:39;;;;;;;;;;;;;;;15.20;88.87;100881.27;85834;1299;81732;-60
2022/10/30 08:41:46;;;;;;;;;;;;;;;15.22;88.68;100882.13;85820;1299;99602;-59
2022/10/30 08:43:55;;;;;;;;;;;;;;;15.24;88.68;100886.78;85862;1299;88857;-60
2022/10/30 08:46:02;;;;;;;;;;;;;;;15.26;88.57;100887.67;85750;1296;95401;-60
2022/10/30 08:48:13;;;;;;;;;;;;;;;15.26;88.48;100891.91;85834;1297;78203;-59
2022/10/30 08:50:21;;;;;;;;;;;;;;;15.33;88.45;100882.85;85863;1299;83185;-60
2022/10/30 08:52:28;;;;;;;;;;;;;;;15.42;88.49;100875.40;85820;1294;98581;-61
2022/10/30 08:54:36;;;;;;;;;;;;;;;15.50;88.43;100868.15;85866;1296;87736;-60
2022/10/30 08:56:46;;;;;;;;;;;;;;;15.52;88.33;100867.10;85857;1302;95145;-60
2022/10/30 08:58:56;;;;;;;;;;;;;;;15.49;88.15;100867.05;85853;1300;81151;-60
2022/10/30 09:01:06;;;;;;;;;;;;;;;15.45;87.76;100868.99;85894;1296;83202;-59
2022/10/30 09:03:16;;;;;;;;;;;;;;;15.43;87.63;100863.85;85889;1301;98444;-59
2022/10/30 09:05:27;;;;;;;;;;;;;;;15.46;87.60;100864.69;85846;1302;88293;-59
2022/10/30 09:07:35;;;;;;;;;;;;;;;15.46;87.47;100873.52;85829;1296;95175;-59
2022/10/30 09:09:43;;;;;;;;;;;;;;;15.48;87.43;100876.95;85873;1299;81561;-59
2022/10/30 09:11:53;;;;;;;;;;;;;;;15.48;87.29;100877.83;85842;1295;81762;-61
2022/10/30 09:14:01;;;;;;;;;;;;;;;15.53;87.13;100880.02;85806;1302;99341;-60
2022/10/30 09:16:11;;;;;;;;;;;;;;;15.57;86.98;100876.32;85847;1304;88332;-60
2022/10/30 09:18:18;;;;;;;;;;;;;;;15.51;86.86;100873.64;85819;1299;95004;-59
2022/10/30 09:20:25;;;;;;;;;;;;;;;15.51;86.72;100875.98;85809;1295;81595;-54
2022/10/30 09:22:33;;;;;;;;;;;;;;;15.52;86.63;100872.20;85810;1300;83462;-60
2022/10/30 09:24:40;;;;;;;;;;;;;;;15.51;86.53;100868.70;85852;1302;99211;-60
2022/10/30 09:26:47;;;;;;;;;;;;;;;15.52;86.38;100873.98;85812;1297;89097;-59
2022/10/30 09:28:55;;;;;;;;;;;;;;;15.52;86.39;100872.58;85793;1300;94122;-59
2022/10/30 09:31:02;;;;;;;;;;;;;;;15.52;86.44;100877.45;85819;1299;80113;-57
2022/10/30 09:33:11;;;;;;;;;;;;;;;15.54;86.32;100883.94;85787;1302;82312;-57
2022/10/30 09:35:20;;;;;;;;;;;;;;;15.50;86.30;100880.05;85822;1300;98859;-59
2022/10/30 09:37:28;;;;;;;;;;;;;;;15.49;86.29;100874.77;85827;1301;88529;-60
2022/10/30 09:39:35;;;;;;;;;;;;;;;15.50;86.26;100875.62;85830;1299;95115;-59
2022/10/30 09:42:05;;;;;;;;;;;;;;;15.51;86.05;100882.22;85822;1302;80619;-59
2022/10/30 09:44:22;;;;;;;;;;;;;;;15.56;86.01;100885.02;85882;1297;82049;-60
2022/10/30 09:46:44;;;;;;;;;;;;;;;15.62;85.92;100887.67;85826;1291;99942;-59
2022/10/30 09:49:27;;;;;;;;;;;;;;;15.70;86.02;100891.81;85856;1294;87666;-60
2022/10/30 09:51:52;;;;;;;;;;;;;;;15.78;85.89;100889.20;85811;1299;95495;-59
2022/10/30 09:54:07;;;;;;;;;;;;;;;15.76;85.62;100890.23;85809;1301;80087;-59
2022/10/30 09:56:24;;;;;;;;;;;;;;;15.76;85.44;100888.38;85814;1294;82667;-59
2022/10/30 09:58:39;;;;;;;;;;;;;;;15.79;85.28;100882.55;85830;1293;99299;-59
2022/10/30 10:00:51;;;;;;;;;;;;;;;15.82;85.08;100881.02;85834;1299;89156;-59
2022/10/30 10:03:22;;;;;;;;;;;;;;;15.82;84.92;100883.55;85786;1303;95699;-60
2022/10/30 10:05:40;;;;;;;;;;;;;;;15.90;85.09;100878.13;85842;1299;79092;-60
2022/10/30 10:07:51;;;;;;;;;;;;;;;16.01;84.92;100881.13;85821;1294;80275;-60
2022/10/30 10:10:05;;;;;;;;;;;;;;;16.14;84.96;100881.39;85795;1302;99784;-59
2022/10/30 10:12:24;;;;;;;;;;;;;;;16.27;84.76;100887.77;85792;1304;88004;-57
2022/10/30 10:14:35;;;;;;;;;;;;;;;16.30;84.39;100879.91;85812;1302;93636;-58
2022/10/30 10:16:45;;;;;;;;;;;;;;;16.29;84.17;100878.61;85801;1300;79786;-58
2022/10/30 10:19:00;;;;;;;;;;;;;;;16.31;84.00;100878.40;85829;1302;81626;-59
2022/10/30 10:21:14;;;;;;;;;;;;;;;16.29;83.56;100884.45;85796;1299;99665;-60
2022/10/30 10:23:27;;;;;;;;;;;;;;;16.23;83.18;100882.59;85814;1299;89046;-59
2022/10/30 10:25:35;;;;;;;;;;;;;;;16.23;83.01;100886.19;85825;1300;95125;-60
2022/10/30 10:27:52;;;;;;;;;;;;;;;16.25;83.02;100890.50;85779;1302;82678;-59
2022/10/30 10:30:03;;;;;;;;;;;;;;;16.29;83.03;100895.55;85833;1300;81091;-59
2022/10/30 10:32:27;;;;;;;;;;;;;;;16.29;82.90;100896.61;85701;1302;101171;-60
2022/10/30 10:34:53;;;;;;;;;;;;;;;16.43;82.98;100895.39;85821;1299;89064;-59
2022/10/30 10:37:07;;;;;;;;;;;;;;;16.59;82.84;100889.14;85705;1302;97505;-59
2022/10/30 10:39:27;;;;;;;;;;;;;;;16.68;82.68;100887.27;85845;1299;80190;-59
2022/10/30 10:41:52;;;;;;;;;;;;;;;16.75;82.08;100883.95;85742;1301;82238;-59
2022/10/30 10:44:29;;;;;;;;;;;;;;;16.79;81.75;100883.94;85737;1303;97546;-60
2022/10/30 10:47:10;;;;;;;;;;;;;;;16.75;81.48;100869.85;85822;1300;87451;-59
2022/10/30 10:49:45;;;;;;;;;;;;;;;16.70;80.87;100864.38;85868;1299;94101;-59
2022/10/30 10:51:59;;;;;;;;;;;;;;;16.65;80.56;100863.64;85808;1299;80585;-59
2022/10/30 10:54:26;;;;;;;;;;;;;;;16.62;80.17;100864.91;85847;1300;80451;-59
2022/10/30 10:56:45;;;;;;;;;;;;;;;16.54;79.96;100870.52;85793;1293;97484;-60
2022/10/30 10:59:02;;;;;;;;;;;;;;;16.51;79.77;100868.80;85854;1295;89241;-59
2022/10/30 11:01:19;;;;;;;;;;;;;;;16.45;79.68;100868.66;85752;1302;93510;-58
2022/10/30 11:03:36;;;;;;;;;;;;;;;16.38;79.53;100865.96;85844;1300;79487;-58
2022/10/30 11:05:49;;;;;;;;;;;;;;;16.28;79.34;100863.42;85833;1302;82138;-60
2022/10/30 11:08:01;;;;;;;;;;;;;;;16.19;79.11;100860.03;85827;1300;98066;-60
2022/10/30 11:10:15;;;;;;;;;;;;;;;16.03;78.94;100864.48;85839;1299;88982;-59